sensor_id;sensor_type;location;lat;lon;timestamp;temperature;humidity
16198;DHT22;8206;51.440;6.914;2022-09-14T12:17:34;13.50;99.90
16198;DHT22;8206;51.440;6.914;2022-09-14T12:20:28;13.30;99.90
16198;DHT22;8206;51.440;6.914;2022-09-14T12:23:18;13.40;99.90
16198;DHT22;8206;51.440;6.914;2022-09-14T12:26:13;13.60;99.90
16198;DHT22;8206;51.440;6.914;2022-09-14T12:28:52;13.70;99.90
16198;DHT22;8206;51.440;6.914;2022-09-14T12:31:36;13.70;99.90
16198;DHT22;8206;51.440;6.914;2022-09-14T12:34:17;13.80;99.90
16198;DHT22;8206;51.440;6.914;2022-09-14T12:37:03;13.90;99.90
16198;DHT22;8206;51.440;6.914;2022-09-14T12:39:31;14.00;99.90
16198;DHT22;8206;51.440;6.914;2022-09-14T12:42:09;14.10;99.90
16198;DHT22;8206;51.440;6.914;2022-09-14T12:44:49;14.20;99.90
16198;DHT22;8206;51.440;6.914;2022-09-14T12:47:47;14.30;99.90
16198;DHT22;8206;51.440;6.914;2022-09-14T12:50:18;14.20;99.90
16198;DHT22;8206;51.440;6.914;2022-09-14T12:52:57;14.30;99.90
16198;DHT22;8206;51.440;6.914;2022-09-14T12:55:55;14.50;99.90
16198;DHT22;8206;51.440;6.914;2022-09-14T12:58:33;14.60;99.90
16198;DHT22;8206;51.440;6.914;2022-09-14T13:01:16;14.60;99.90
16198;DHT22;8206;51.440;6.914;2022-09-14T13:03:47;14.70;99.90
16198;DHT22;8206;51.440;6.914;2022-09-14T13:06:17;14.60;72.40
16198;DHT22;8206;51.440;6.914;2022-09-14T13:08:45;14.60;80.30
16198;DHT22;8206;51.440;6.914;2022-09-14T13:11:22;14.70;99.70
16198;DHT22;8206;51.440;6.914;2022-09-14T13:13:49;14.80;99.90
16198;DHT22;8206;51.440;6.914;2022-09-14T13:16:26;14.80;99.90
16198;DHT22;8206;51.440;6.914;2022-09-14T13:19:00;14.90;90.60
16198;DHT22;8206;51.440;6.914;2022-09-14T13:21:28;14.90;87.10
16198;DHT22;8206;51.440;6.914;2022-09-14T13:23:55;14.90;83.30
16198;DHT22;8206;51.440;6.914;2022-09-14T13:26:23;14.90;99.90
16198;DHT22;8206;51.440;6.914;2022-09-14T13:28:52;15.00;91.10
16198;DHT22;8206;51.440;6.914;2022-09-14T13:31:24;15.00;98.10
16198;DHT22;8206;51.440;6.914;2022-09-14T13:33:54;15.10;89.90
16198;DHT22;8206;51.440;6.914;2022-09-14T13:36:24;15.10;91.00
16198;DHT22;8206;51.440;6.914;2022-09-14T13:38:53;15.20;61.20
16198;DHT22;8206;51.440;6.914;2022-09-14T13:41:21;15.10;66.50
16198;DHT22;8206;51.440;6.914;2022-09-14T13:43:51;15.00;54.10
16198;DHT22;8206;51.440;6.914;2022-09-14T13:46:19;14.90;78.40
16198;DHT22;8206;51.440;6.914;2022-09-14T13:48:47;14.90;99.90
16198;DHT22;8206;51.440;6.914;2022-09-14T13:51:14;14.90;99.40
16198;DHT22;8206;51.440;6.914;2022-09-14T13:53:44;14.80;99.90
16198;DHT22;8206;51.440;6.914;2022-09-14T13:56:22;14.90;99.90
16198;DHT22;8206;51.440;6.914;2022-09-14T13:59:14;14.90;99.90
16198;DHT22;8206;51.440;6.914;2022-09-14T14:01:48;15.10;99.90
16198;DHT22;8206;51.440;6.914;2022-09-14T14:04:27;15.20;93.50
16198;DHT22;8206;51.440;6.914;2022-09-14T14:07:02;15.20;98.60
16198;DHT22;8206;51.440;6.914;2022-09-14T14:09:40;15.30;93.60
16198;DHT22;8206;51.440;6.914;2022-09-14T14:12:10;15.30;99.90
16198;DHT22;8206;51.440;6.914;2022-09-14T14:14:38;15.40;99.90
16198;DHT22;8206;51.440;6.914;2022-09-14T14:17:24;15.40;99.90
16198;DHT22;8206;51.440;6.914;2022-09-14T14:19:59;15.40;62.80
16198;DHT22;8206;51.440;6.914;2022-09-14T14:22:54;15.40;49.20
16198;DHT22;8206;51.440;6.914;2022-09-14T14:25:28;15.50;64.40
16198;DHT22;8206;51.440;6.914;2022-09-14T14:28:00;15.70;92.60
16198;DHT22;8206;51.440;6.914;2022-09-14T14:30:29;15.80;23.40
16198;DHT22;8206;51.440;6.914;2022-09-14T14:32:57;15.80;27.90
16198;DHT22;8206;51.440;6.914;2022-09-14T14:35:26;15.80;15.40
16198;DHT22;8206;51.440;6.914;2022-09-14T14:37:54;15.90;41.00
16198;DHT22;8206;51.440;6.914;2022-09-14T14:40:21;16.00;35.00
16198;DHT22;8206;51.440;6.914;2022-09-14T14:42:49;15.90;27.30
16198;DHT22;8206;51.440;6.914;2022-09-14T14:45:20;16.00;27.10
16198;DHT22;8206;51.440;6.914;2022-09-14T14:47:47;16.00;28.10
16198;DHT22;8206;51.440;6.914;2022-09-14T14:50:16;16.10;6.80
16198;DHT22;8206;51.440;6.914;2022-09-14T14:52:43;16.10;4.80
16198;DHT22;8206;51.440;6.914;2022-09-14T14:55:10;16.10;1.00
16198;DHT22;8206;51.440;6.914;2022-09-14T14:57:36;16.20;5.50
16198;DHT22;8206;51.440;6.914;2022-09-14T15:00:04;16.20;6.30
16198;DHT22;8206;51.440;6.914;2022-09-14T15:02:33;16.30;19.00
16198;DHT22;8206;51.440;6.914;2022-09-14T15:05:00;16.30;1.00
16198;DHT22;8206;51.440;6.914;2022-09-14T15:07:27;16.20;81.60
16198;DHT22;8206;51.440;6.914;2022-09-14T15:09:56;16.10;1.00
16198;DHT22;8206;51.440;6.914;2022-09-14T15:12:23;16.00;1.00
16198;DHT22;8206;51.440;6.914;2022-09-14T15:14:50;16.00;1.00
16198;DHT22;8206;51.440;6.914;2022-09-14T15:17:17;16.00;1.00
16198;DHT22;8206;51.440;6.914;2022-09-14T15:19:45;15.90;1.00
16198;DHT22;8206;51.440;6.914;2022-09-14T15:22:11;16.00;1.00
16198;DHT22;8206;51.440;6.914;2022-09-14T15:24:39;15.90;1.00
16198;DHT22;8206;51.440;6.914;2022-09-14T15:27:06;16.00;1.00
16198;DHT22;8206;51.440;6.914;2022-09-14T15:29:33;16.00;1.00
16198;DHT22;8206;51.440;6.914;2022-09-14T15:32:00;16.00;1.00
16198;DHT22;8206;51.440;6.914;2022-09-14T15:34:27;16.10;1.00
16198;DHT22;8206;51.440;6.914;2022-09-14T15:36:55;16.10;1.00
16198;DHT22;8206;51.440;6.914;2022-09-14T15:39:25;16.10;1.00
16198;DHT22;8206;51.440;6.914;2022-09-14T15:41:52;16.00;1.00
16198;DHT22;8206;51.440;6.914;2022-09-14T15:44:20;15.80;1.00
16198;DHT22;8206;51.440;6.914;2022-09-14T15:46:47;15.80;99.90
16198;DHT22;8206;51.440;6.914;2022-09-14T15:49:15;15.70;57.90
16198;DHT22;8206;51.440;6.914;2022-09-14T15:51:44;15.60;99.90
16198;DHT22;8206;51.440;6.914;2022-09-14T15:54:13;15.60;99.90
16198;DHT22;8206;51.440;6.914;2022-09-14T15:56:40;15.60;99.90
16198;DHT22;8206;51.440;6.914;2022-09-14T15:59:07;15.60;99.90
16198;DHT22;8206;51.440;6.914;2022-09-14T16:01:35;15.60;1.00
16198;DHT22;8206;51.440;6.914;2022-09-14T16:04:05;15.50;99.90
16198;DHT22;8206;51.440;6.914;2022-09-14T16:06:33;15.50;99.90
16198;DHT22;8206;51.440;6.914;2022-09-14T16:09:00;15.50;99.90
16198;DHT22;8206;51.440;6.914;2022-09-14T16:11:29;15.40;99.90
16198;DHT22;8206;51.440;6.914;2022-09-14T16:13:56;15.30;99.90
16198;DHT22;8206;51.440;6.914;2022-09-14T16:16:23;15.20;1.00
16198;DHT22;8206;51.440;6.914;2022-09-14T16:18:50;15.20;99.90
16198;DHT22;8206;51.440;6.914;2022-09-14T16:21:20;15.20;99.90
16198;DHT22;8206;51.440;6.914;2022-09-14T16:23:48;15.20;99.90
16198;DHT22;8206;51.440;6.914;2022-09-14T16:26:17;15.20;1.00
16198;DHT22;8206;51.440;6.914;2022-09-14T16:28:46;15.10;1.00
16198;DHT22;8206;51.440;6.914;2022-09-14T16:31:15;15.10;1.00
16198;DHT22;8206;51.440;6.914;2022-09-14T16:33:44;15.10;1.00
16198;DHT22;8206;51.440;6.914;2022-09-14T16:36:14;15.10;1.00
16198;DHT22;8206;51.440;6.914;2022-09-14T16:38:42;15.20;1.00
16198;DHT22;8206;51.440;6.914;2022-09-14T16:41:09;15.30;1.00
16198;DHT22;8206;51.440;6.914;2022-09-14T16:43:36;15.30;1.00
16198;DHT22;8206;51.440;6.914;2022-09-14T16:46:07;15.30;99.90
16198;DHT22;8206;51.440;6.914;2022-09-14T16:48:38;15.30;64.60
16198;DHT22;8206;51.440;6.914;2022-09-14T16:51:05;15.10;99.90
16198;DHT22;8206;51.440;6.914;2022-09-14T16:53:34;15.20;1.00
16198;DHT22;8206;51.440;6.914;2022-09-14T16:56:02;15.20;1.00
16198;DHT22;8206;51.440;6.914;2022-09-14T16:58:29;15.30;1.00
16198;DHT22;8206;51.440;6.914;2022-09-14T17:01:04;15.30;1.00
16198;DHT22;8206;51.440;6.914;2022-09-14T17:03:32;15.20;1.00
16198;DHT22;8206;51.440;6.914;2022-09-14T17:06:00;15.20;1.00
16198;DHT22;8206;51.440;6.914;2022-09-14T17:08:27;15.20;1.00
16198;DHT22;8206;51.440;6.914;2022-09-14T17:10:54;15.20;1.00
16198;DHT22;8206;51.440;6.914;2022-09-14T17:13:21;15.20;1.00
16198;DHT22;8206;51.440;6.914;2022-09-14T17:15:48;15.10;1.00
16198;DHT22;8206;51.440;6.914;2022-09-14T17:18:16;15.10;1.00
16198;DHT22;8206;51.440;6.914;2022-09-14T17:20:51;15.00;97.60
16198;DHT22;8206;51.440;6.914;2022-09-14T17:23:18;14.90;39.00
16198;DHT22;8206;51.440;6.914;2022-09-14T17:25:45;14.90;99.90
16198;DHT22;8206;51.440;6.914;2022-09-14T17:28:12;14.90;1.00
16198;DHT22;8206;51.440;6.914;2022-09-14T17:30:40;14.90;1.00
16198;DHT22;8206;51.440;6.914;2022-09-14T17:33:07;14.90;1.00
16198;DHT22;8206;51.440;6.914;2022-09-14T17:35:35;14.90;1.00
16198;DHT22;8206;51.440;6.914;2022-09-14T17:38:02;14.90;99.90
16198;DHT22;8206;51.440;6.914;2022-09-14T17:40:29;14.90;92.20
16198;DHT22;8206;51.440;6.914;2022-09-14T17:42:56;14.90;1.00
16198;DHT22;8206;51.440;6.914;2022-09-14T17:45:23;14.80;99.90
16198;DHT22;8206;51.440;6.914;2022-09-14T17:47:49;14.70;99.90
16198;DHT22;8206;51.440;6.914;2022-09-14T17:50:16;14.70;1.00
16198;DHT22;8206;51.440;6.914;2022-09-14T17:52:45;14.80;99.90
16198;DHT22;8206;51.440;6.914;2022-09-14T17:55:11;14.80;92.70
16198;DHT22;8206;51.440;6.914;2022-09-14T17:57:38;14.70;99.90
16198;DHT22;8206;51.440;6.914;2022-09-14T18:00:06;14.70;1.00
16198;DHT22;8206;51.440;6.914;2022-09-14T18:02:33;14.70;1.00
16198;DHT22;8206;51.440;6.914;2022-09-14T18:05:00;14.60;1.00
16198;DHT22;8206;51.440;6.914;2022-09-14T18:07:28;14.60;1.00
16198;DHT22;8206;51.440;6.914;2022-09-14T18:09:57;14.50;99.90
16198;DHT22;8206;51.440;6.914;2022-09-14T18:12:23;14.50;99.90
16198;DHT22;8206;51.440;6.914;2022-09-14T18:14:50;14.40;1.00
16198;DHT22;8206;51.440;6.914;2022-09-14T18:17:17;14.50;99.90
16198;DHT22;8206;51.440;6.914;2022-09-14T18:19:44;14.30;93.90
16198;DHT22;8206;51.440;6.914;2022-09-14T18:22:11;14.30;1.00
16198;DHT22;8206;51.440;6.914;2022-09-14T18:24:40;14.20;1.00
16198;DHT22;8206;51.440;6.914;2022-09-14T18:27:08;14.10;1.00
16198;DHT22;8206;51.440;6.914;2022-09-14T18:29:34;14.00;1.00
16198;DHT22;8206;51.440;6.914;2022-09-14T18:32:01;14.00;99.90
16198;DHT22;8206;51.440;6.914;2022-09-14T18:34:28;14.00;1.00
16198;DHT22;8206;51.440;6.914;2022-09-14T18:36:55;13.90;1.00
16198;DHT22;8206;51.440;6.914;2022-09-14T18:39:22;13.90;1.00
16198;DHT22;8206;51.440;6.914;2022-09-14T18:41:50;14.00;1.00
16198;DHT22;8206;51.440;6.914;2022-09-14T18:44:19;13.90;1.00
16198;DHT22;8206;51.440;6.914;2022-09-14T18:46:46;13.90;1.00
16198;DHT22;8206;51.440;6.914;2022-09-14T18:49:15;13.90;1.00
16198;DHT22;8206;51.440;6.914;2022-09-14T18:51:42;13.90;1.00
16198;DHT22;8206;51.440;6.914;2022-09-14T18:54:11;13.80;1.00
16198;DHT22;8206;51.440;6.914;2022-09-14T18:56:39;13.90;1.00
16198;DHT22;8206;51.440;6.914;2022-09-14T18:59:08;13.90;12.60
16198;DHT22;8206;51.440;6.914;2022-09-14T19:01:37;13.90;21.70
16198;DHT22;8206;51.440;6.914;2022-09-14T19:04:06;13.90;27.00
16198;DHT22;8206;51.440;6.914;2022-09-14T19:06:34;13.90;31.20
16198;DHT22;8206;51.440;6.914;2022-09-14T19:09:02;13.90;51.60
16198;DHT22;8206;51.440;6.914;2022-09-14T19:11:30;13.90;57.60
16198;DHT22;8206;51.440;6.914;2022-09-14T19:14:00;13.90;61.30
16198;DHT22;8206;51.440;6.914;2022-09-14T19:16:28;13.90;90.00
16198;DHT22;8206;51.440;6.914;2022-09-14T19:18:56;13.90;99.90
16198;DHT22;8206;51.440;6.914;2022-09-14T19:21:24;13.90;99.90
16198;DHT22;8206;51.440;6.914;2022-09-14T19:23:56;13.90;99.90
16198;DHT22;8206;51.440;6.914;2022-09-14T19:26:25;13.80;99.90
16198;DHT22;8206;51.440;6.914;2022-09-14T19:28:52;13.80;99.90
16198;DHT22;8206;51.440;6.914;2022-09-14T19:31:20;13.80;99.90
16198;DHT22;8206;51.440;6.914;2022-09-14T19:33:48;13.80;99.90
16198;DHT22;8206;51.440;6.914;2022-09-14T19:36:18;13.80;99.90
16198;DHT22;8206;51.440;6.914;2022-09-14T19:38:45;13.80;99.90
16198;DHT22;8206;51.440;6.914;2022-09-14T19:41:12;13.70;99.90
16198;DHT22;8206;51.440;6.914;2022-09-14T19:43:39;13.70;99.90
16198;DHT22;8206;51.440;6.914;2022-09-14T19:46:07;13.70;99.90
16198;DHT22;8206;51.440;6.914;2022-09-14T19:48:35;13.60;99.90
16198;DHT22;8206;51.440;6.914;2022-09-14T19:51:04;13.70;99.90
16198;DHT22;8206;51.440;6.914;2022-09-14T19:53:34;13.60;99.90
16198;DHT22;8206;51.440;6.914;2022-09-14T19:56:03;13.60;99.90
16198;DHT22;8206;51.440;6.914;2022-09-14T19:58:33;13.60;99.90
16198;DHT22;8206;51.440;6.914;2022-09-14T20:01:01;13.50;99.90
16198;DHT22;8206;51.440;6.914;2022-09-14T20:03:27;13.60;99.90
16198;DHT22;8206;51.440;6.914;2022-09-14T20:05:58;13.50;99.90
16198;DHT22;8206;51.440;6.914;2022-09-14T20:08:25;13.50;99.90
16198;DHT22;8206;51.440;6.914;2022-09-14T20:10:53;13.40;99.90
16198;DHT22;8206;51.440;6.914;2022-09-14T20:13:20;13.40;99.90
16198;DHT22;8206;51.440;6.914;2022-09-14T20:15:47;13.40;99.90
16198;DHT22;8206;51.440;6.914;2022-09-14T20:18:14;13.40;99.90
16198;DHT22;8206;51.440;6.914;2022-09-14T20:20:41;13.30;99.90
16198;DHT22;8206;51.440;6.914;2022-09-14T20:23:08;13.20;99.90
16198;DHT22;8206;51.440;6.914;2022-09-14T20:25:34;13.20;99.90
16198;DHT22;8206;51.440;6.914;2022-09-14T20:28:02;13.10;99.90
16198;DHT22;8206;51.440;6.914;2022-09-14T20:30:29;13.10;99.90
16198;DHT22;8206;51.440;6.914;2022-09-14T20:32:56;13.00;99.90
16198;DHT22;8206;51.440;6.914;2022-09-14T20:35:23;13.00;99.90
16198;DHT22;8206;51.440;6.914;2022-09-14T20:37:49;13.00;99.90
16198;DHT22;8206;51.440;6.914;2022-09-14T20:40:16;12.90;99.90
16198;DHT22;8206;51.440;6.914;2022-09-14T20:42:43;12.90;99.90
16198;DHT22;8206;51.440;6.914;2022-09-14T20:45:11;12.90;99.90
16198;DHT22;8206;51.440;6.914;2022-09-14T20:47:41;12.80;99.90
16198;DHT22;8206;51.440;6.914;2022-09-14T20:50:08;12.80;99.90
16198;DHT22;8206;51.440;6.914;2022-09-14T20:52:35;12.80;99.90
16198;DHT22;8206;51.440;6.914;2022-09-14T20:55:01;12.80;99.90
16198;DHT22;8206;51.440;6.914;2022-09-14T20:57:30;12.80;99.90
16198;DHT22;8206;51.440;6.914;2022-09-14T20:59:57;12.70;99.90
16198;DHT22;8206;51.440;6.914;2022-09-14T21:02:25;12.70;99.90
16198;DHT22;8206;51.440;6.914;2022-09-14T21:04:52;12.70;99.90
16198;DHT22;8206;51.440;6.914;2022-09-14T21:07:19;12.70;99.90
16198;DHT22;8206;51.440;6.914;2022-09-14T21:09:46;12.60;99.90
16198;DHT22;8206;51.440;6.914;2022-09-14T21:12:13;12.60;99.90
16198;DHT22;8206;51.440;6.914;2022-09-14T21:14:41;12.50;99.90
16198;DHT22;8206;51.440;6.914;2022-09-14T21:17:09;12.50;99.90
16198;DHT22;8206;51.440;6.914;2022-09-14T21:19:37;12.50;99.90
16198;DHT22;8206;51.440;6.914;2022-09-14T21:22:04;12.50;99.90
16198;DHT22;8206;51.440;6.914;2022-09-14T21:24:32;12.50;99.90
16198;DHT22;8206;51.440;6.914;2022-09-14T21:26:59;12.40;99.90
16198;DHT22;8206;51.440;6.914;2022-09-14T21:29:26;12.40;99.90
16198;DHT22;8206;51.440;6.914;2022-09-14T21:31:53;12.40;99.90
16198;DHT22;8206;51.440;6.914;2022-09-14T21:34:20;12.50;99.90
16198;DHT22;8206;51.440;6.914;2022-09-14T21:36:49;12.50;99.90
16198;DHT22;8206;51.440;6.914;2022-09-14T21:39:18;12.50;99.90
16198;DHT22;8206;51.440;6.914;2022-09-14T21:41:47;12.50;99.90
16198;DHT22;8206;51.440;6.914;2022-09-14T21:44:15;12.50;99.90
16198;DHT22;8206;51.440;6.914;2022-09-14T21:46:42;12.50;99.90
16198;DHT22;8206;51.440;6.914;2022-09-14T21:49:12;12.50;99.90
16198;DHT22;8206;51.440;6.914;2022-09-14T21:51:39;12.60;99.90
16198;DHT22;8206;51.440;6.914;2022-09-14T21:54:09;12.70;99.90
16198;DHT22;8206;51.440;6.914;2022-09-14T21:56:38;12.80;99.90
16198;DHT22;8206;51.440;6.914;2022-09-14T21:59:07;12.90;99.90
16198;DHT22;8206;51.440;6.914;2022-09-14T22:01:34;13.00;99.90
16198;DHT22;8206;51.440;6.914;2022-09-14T22:04:02;13.10;99.90
16198;DHT22;8206;51.440;6.914;2022-09-14T22:06:31;13.20;99.90
16198;DHT22;8206;51.440;6.914;2022-09-14T22:08:59;13.30;99.90
16198;DHT22;8206;51.440;6.914;2022-09-14T22:11:29;13.40;99.90
16198;DHT22;8206;51.440;6.914;2022-09-14T22:13:58;13.40;99.90
16198;DHT22;8206;51.440;6.914;2022-09-14T22:16:26;13.40;99.90
16198;DHT22;8206;51.440;6.914;2022-09-14T22:18:56;13.50;99.90
16198;DHT22;8206;51.440;6.914;2022-09-14T22:21:24;13.50;99.90
16198;DHT22;8206;51.440;6.914;2022-09-14T22:23:53;13.60;99.90
16198;DHT22;8206;51.440;6.914;2022-09-14T22:26:20;13.60;99.90
16198;DHT22;8206;51.440;6.914;2022-09-14T22:28:50;13.60;99.90
16198;DHT22;8206;51.440;6.914;2022-09-14T22:31:19;13.60;99.90
16198;DHT22;8206;51.440;6.914;2022-09-14T22:33:47;13.60;99.90
16198;DHT22;8206;51.440;6.914;2022-09-14T22:36:14;13.60;99.90
16198;DHT22;8206;51.440;6.914;2022-09-14T22:38:41;13.50;99.90
16198;DHT22;8206;51.440;6.914;2022-09-14T22:41:10;13.60;99.90
16198;DHT22;8206;51.440;6.914;2022-09-14T22:43:38;13.60;99.90
16198;DHT22;8206;51.440;6.914;2022-09-14T22:46:07;13.70;99.90
16198;DHT22;8206;51.440;6.914;2022-09-14T22:48:34;13.70;99.90
16198;DHT22;8206;51.440;6.914;2022-09-14T22:51:02;13.60;99.90
16198;DHT22;8206;51.440;6.914;2022-09-14T22:53:29;13.60;99.90
16198;DHT22;8206;51.440;6.914;2022-09-14T22:55:56;13.60;99.90
16198;DHT22;8206;51.440;6.914;2022-09-14T22:58:25;13.50;99.90
16198;DHT22;8206;51.440;6.914;2022-09-14T23:00:52;13.50;99.90
16198;DHT22;8206;51.440;6.914;2022-09-14T23:03:20;13.40;99.90
16198;DHT22;8206;51.440;6.914;2022-09-14T23:05:48;13.30;99.90
16198;DHT22;8206;51.440;6.914;2022-09-14T23:08:15;13.20;99.90
16198;DHT22;8206;51.440;6.914;2022-09-14T23:10:43;13.20;99.90
16198;DHT22;8206;51.440;6.914;2022-09-14T23:13:09;13.10;99.90
16198;DHT22;8206;51.440;6.914;2022-09-14T23:15:37;13.00;99.90
16198;DHT22;8206;51.440;6.914;2022-09-14T23:18:04;13.00;99.90
16198;DHT22;8206;51.440;6.914;2022-09-14T23:20:34;13.10;99.90
16198;DHT22;8206;51.440;6.914;2022-09-14T23:23:01;13.10;99.90
16198;DHT22;8206;51.440;6.914;2022-09-14T23:25:28;13.20;99.90
16198;DHT22;8206;51.440;6.914;2022-09-14T23:27:55;13.20;99.90
16198;DHT22;8206;51.440;6.914;2022-09-14T23:30:22;13.20;99.90
16198;DHT22;8206;51.440;6.914;2022-09-14T23:32:49;13.20;99.90
16198;DHT22;8206;51.440;6.914;2022-09-14T23:35:16;13.10;99.90
16198;DHT22;8206;51.440;6.914;2022-09-14T23:37:44;13.00;99.90
16198;DHT22;8206;51.440;6.914;2022-09-14T23:40:11;13.00;99.90
16198;DHT22;8206;51.440;6.914;2022-09-14T23:42:38;12.90;99.90
16198;DHT22;8206;51.440;6.914;2022-09-14T23:45:05;12.90;99.90
16198;DHT22;8206;51.440;6.914;2022-09-14T23:47:32;12.90;99.90
16198;DHT22;8206;51.440;6.914;2022-09-14T23:49:59;12.90;99.90
16198;DHT22;8206;51.440;6.914;2022-09-14T23:52:26;12.90;99.90
16198;DHT22;8206;51.440;6.914;2022-09-14T23:54:54;12.90;99.90
16198;DHT22;8206;51.440;6.914;2022-09-14T23:57:21;12.90;99.90
16198;DHT22;8206;51.440;6.914;2022-09-14T23:59:47;12.80;99.90
